Terminal Aerodrome Forecast
Issued by NWS

Home | Current Version | Previous Version | Text Only | Print | Product List | Glossary On
Versions: 1 2 3 4 5 6 7 8 9 10 11 12 13 14 15 16 17 18 19
000
FTUS44 KCRP 281900 AAA
TAFALI
TAF AMD
KALI 281901Z 2819/2918 34008KT P6SM SCT040
      TEMPO 2819/2821 BKN012
     FM282200 VRB03KT P6SM SKC=

USA.gov is the U.S. government's official web portal to all federal, state and local government web resources and services.